createdAt,value
2023-03-19T00:00:49.386Z,20.15
2023-03-19T00:03:17.192Z,20.18
2023-03-19T00:05:45.036Z,20.18
2023-03-19T00:08:12.950Z,20.15
2023-03-19T00:10:40.985Z,20.14
2023-03-19T00:13:10.253Z,20.16
2023-03-19T00:15:38.301Z,20.15
2023-03-19T00:18:06.398Z,20.15
2023-03-19T00:20:34.383Z,20.14
2023-03-19T00:23:02.292Z,20.14
2023-03-19T00:25:30.276Z,20.15
2023-03-19T00:27:58.304Z,20.14
2023-03-19T00:30:26.062Z,20.15
2023-03-19T00:32:53.956Z,20.13
2023-03-19T00:35:22.037Z,20.11
2023-03-19T00:37:49.891Z,20.11
2023-03-19T00:40:17.642Z,20.12
2023-03-19T00:42:45.388Z,20.12
2023-03-19T00:45:13.216Z,20.09
2023-03-19T00:47:42.217Z,20.10
2023-03-19T00:50:10.228Z,20.11
2023-03-19T00:52:37.930Z,20.09
2023-03-19T00:55:05.874Z,20.09
2023-03-19T00:57:33.606Z,20.09
2023-03-19T01:00:01.588Z,20.09
2023-03-19T01:02:29.460Z,20.08
2023-03-19T01:04:57.197Z,20.08
2023-03-19T01:07:25.040Z,20.11
2023-03-19T01:09:53.130Z,20.10
2023-03-19T01:12:20.956Z,20.10
2023-03-19T01:14:48.709Z,20.09
2023-03-19T01:17:16.753Z,20.09
2023-03-19T01:19:44.709Z,20.11
2023-03-19T01:22:13.296Z,20.09
2023-03-19T01:24:41.322Z,20.10
2023-03-19T01:27:09.179Z,20.09
2023-03-19T01:29:37.260Z,20.08
2023-03-19T01:32:05.030Z,20.09
2023-03-19T01:34:33.067Z,20.07
2023-03-19T01:37:01.227Z,20.07
2023-03-19T01:39:29.011Z,20.06
2023-03-19T01:41:57.605Z,20.05
2023-03-19T01:44:26.072Z,20.07
2023-03-19T01:46:53.987Z,20.08
2023-03-19T01:49:21.878Z,20.05
2023-03-19T01:51:49.904Z,20.06
2023-03-19T01:54:17.713Z,20.07
2023-03-19T01:56:45.482Z,20.07
2023-03-19T01:59:13.274Z,20.05
2023-03-19T02:01:41.253Z,20.04
2023-03-19T02:04:09.256Z,20.04
2023-03-19T02:06:37.786Z,20.01
2023-03-19T02:09:05.589Z,20.01
2023-03-19T02:11:33.616Z,20.02
2023-03-19T02:14:01.500Z,20.03
2023-03-19T02:16:29.651Z,20.01
2023-03-19T02:18:57.729Z,20.01
2023-03-19T02:21:25.819Z,20.01
2023-03-19T02:23:53.699Z,20.00
2023-03-19T02:26:21.742Z,20.01
2023-03-19T02:28:49.835Z,20.00
2023-03-19T02:31:18.447Z,19.99
2023-03-19T02:33:46.350Z,19.99
2023-03-19T02:36:14.338Z,20.01
2023-03-19T02:38:42.143Z,19.97
2023-03-19T02:41:10.107Z,19.97
2023-03-19T02:43:38.009Z,19.96
2023-03-19T02:46:05.882Z,19.97
2023-03-19T02:48:33.827Z,19.99
2023-03-19T02:51:01.699Z,19.97
2023-03-19T02:53:29.469Z,19.97
2023-03-19T02:55:57.320Z,19.97
2023-03-19T02:58:25.129Z,19.99
2023-03-19T03:00:53.275Z,19.98
2023-03-19T03:03:21.342Z,19.98
2023-03-19T03:05:49.300Z,19.97
2023-03-19T03:08:17.269Z,19.94
2023-03-19T03:10:45.069Z,19.96
2023-03-19T03:13:12.954Z,19.95
2023-03-19T03:15:40.778Z,19.97
2023-03-19T03:18:08.610Z,19.96
2023-03-19T03:20:36.739Z,19.95
2023-03-19T03:23:04.535Z,19.96
2023-03-19T03:25:32.388Z,19.96
2023-03-19T03:28:00.113Z,19.94
2023-03-19T03:30:27.895Z,19.94
2023-03-19T03:32:55.758Z,19.95
2023-03-19T03:35:23.717Z,19.93
2023-03-19T03:37:51.559Z,19.90
2023-03-19T03:40:19.676Z,19.92
2023-03-19T03:42:47.485Z,19.93
2023-03-19T03:45:15.635Z,19.94
2023-03-19T03:47:43.482Z,19.93
2023-03-19T03:50:12.746Z,19.93
2023-03-19T03:52:41.000Z,19.94
2023-03-19T03:55:09.382Z,19.97
2023-03-19T04:00:28.800Z,19.96
2023-03-19T04:02:56.741Z,19.92
2023-03-19T04:05:24.530Z,19.93
2023-03-19T04:07:52.772Z,19.92
2023-03-19T04:10:20.560Z,19.92
2023-03-19T04:12:48.537Z,19.94
2023-03-19T04:15:16.732Z,19.92
2023-03-19T04:17:44.522Z,19.92
2023-03-19T04:20:12.462Z,19.94
2023-03-19T04:22:40.284Z,19.91
2023-03-19T04:25:09.395Z,19.91
2023-03-19T04:27:37.133Z,19.89
2023-03-19T04:30:05.008Z,19.91
2023-03-19T04:32:33.672Z,19.92
2023-03-19T04:35:01.875Z,19.91
2023-03-19T04:37:32.946Z,19.89
2023-03-19T04:40:01.091Z,19.90
2023-03-19T04:42:28.849Z,19.90
2023-03-19T04:44:56.805Z,19.89
2023-03-19T04:47:24.539Z,19.86
2023-03-19T04:49:52.307Z,19.88
2023-03-19T04:52:20.185Z,19.85
2023-03-19T04:54:48.005Z,19.86
2023-03-19T04:57:15.821Z,19.85
2023-03-19T04:59:43.598Z,19.84
2023-03-19T05:02:11.343Z,19.86
2023-03-19T05:04:39.421Z,19.85
2023-03-19T05:07:07.361Z,19.89
2023-03-19T05:09:35.134Z,19.88
2023-03-19T05:12:02.946Z,19.88
2023-03-19T05:14:30.741Z,19.83
2023-03-19T05:16:58.772Z,19.83
2023-03-19T05:19:26.622Z,19.80
2023-03-19T05:21:54.582Z,19.80
2023-03-19T05:24:22.429Z,19.79
2023-03-19T05:26:50.183Z,19.78
2023-03-19T05:29:17.974Z,19.78
2023-03-19T05:31:46.219Z,19.77
2023-03-19T05:34:14.107Z,19.78
2023-03-19T05:36:41.869Z,19.76
2023-03-19T05:39:09.741Z,19.75
2023-03-19T05:41:38.615Z,19.75
2023-03-19T05:44:06.935Z,19.74
2023-03-19T05:46:34.781Z,19.79
2023-03-19T05:49:02.661Z,19.78
2023-03-19T05:51:30.504Z,19.78
2023-03-19T05:53:58.321Z,19.76
2023-03-19T05:56:26.081Z,19.75
2023-03-19T05:58:54.276Z,19.76
2023-03-19T06:01:22.411Z,19.78
2023-03-19T06:03:50.622Z,19.81
2023-03-19T06:06:18.426Z,19.82
2023-03-19T06:08:46.972Z,19.82
2023-03-19T06:11:17.563Z,19.92
2023-03-19T06:13:46.256Z,19.94
2023-03-19T06:16:14.162Z,20.23
2023-03-19T06:18:42.180Z,20.52
2023-03-19T06:21:09.930Z,20.76
2023-03-19T06:23:40.739Z,20.96
2023-03-19T06:26:09.311Z,21.10
2023-03-19T06:28:37.086Z,21.25
2023-03-19T06:31:05.479Z,21.37
2023-03-19T06:33:33.770Z,21.46
2023-03-19T06:36:01.705Z,21.50
2023-03-19T06:38:29.581Z,21.49
2023-03-19T06:40:57.343Z,21.46
2023-03-19T06:43:25.259Z,21.39
2023-03-19T06:45:53.292Z,21.32
2023-03-19T06:48:21.253Z,21.27
2023-03-19T06:50:49.034Z,21.19
2023-03-19T06:53:16.936Z,21.14
2023-03-19T06:55:44.796Z,21.09
2023-03-19T06:58:12.593Z,21.02
2023-03-19T07:00:41.491Z,20.96
2023-03-19T07:03:09.443Z,20.90
2023-03-19T07:05:37.272Z,20.84
2023-03-19T07:08:05.139Z,20.79
2023-03-19T07:10:33.405Z,20.73
2023-03-19T07:13:01.436Z,20.69
2023-03-19T07:15:29.256Z,20.65
2023-03-19T07:17:57.478Z,20.60
2023-03-19T07:20:25.371Z,20.59
2023-03-19T07:22:53.208Z,20.57
2023-03-19T07:25:22.205Z,20.55
2023-03-19T07:27:50.176Z,20.53
2023-03-19T07:30:17.960Z,20.50
2023-03-19T07:32:45.962Z,20.49
2023-03-19T07:35:14.453Z,20.49
2023-03-19T07:37:42.300Z,20.46
2023-03-19T07:40:10.070Z,20.47
2023-03-19T07:42:40.768Z,20.50
2023-03-19T07:45:09.278Z,20.52
2023-03-19T07:47:37.577Z,20.54
2023-03-19T07:50:05.347Z,20.60
2023-03-19T07:52:33.561Z,20.90
2023-03-19T07:55:01.613Z,21.06
2023-03-19T07:57:29.431Z,21.10
2023-03-19T07:59:57.237Z,21.11
2023-03-19T08:02:25.222Z,21.10
2023-03-19T08:04:53.609Z,21.09
2023-03-19T08:07:21.807Z,21.07
2023-03-19T08:09:49.602Z,21.04
2023-03-19T08:12:19.399Z,21.05
2023-03-19T08:14:47.189Z,21.02
2023-03-19T08:17:15.052Z,21.03
2023-03-19T08:19:42.918Z,21.03
2023-03-19T08:22:10.818Z,21.03
2023-03-19T08:24:38.917Z,20.99
2023-03-19T08:27:09.030Z,20.80
2023-03-19T08:29:36.897Z,20.66
2023-03-19T08:32:04.781Z,20.64
2023-03-19T08:34:32.545Z,20.67
2023-03-19T08:37:00.578Z,20.70
2023-03-19T08:39:28.792Z,20.74
2023-03-19T08:41:57.846Z,20.76
2023-03-19T08:44:25.774Z,20.76
2023-03-19T08:46:53.572Z,20.78
2023-03-19T08:49:21.557Z,20.80
2023-03-19T08:51:49.916Z,20.80
2023-03-19T08:54:17.726Z,20.81
2023-03-19T08:56:48.193Z,20.84
2023-03-19T08:59:15.967Z,20.85
2023-03-19T09:01:44.276Z,20.83
2023-03-19T09:04:12.192Z,20.86
2023-03-19T09:06:40.020Z,20.89
2023-03-19T09:09:07.822Z,20.92
2023-03-19T09:11:38.203Z,21.16
2023-03-19T09:14:05.995Z,21.36
2023-03-19T09:16:33.799Z,21.48
2023-03-19T09:19:02.474Z,21.51
2023-03-19T09:21:30.556Z,21.46
2023-03-19T09:23:58.393Z,21.42
2023-03-19T09:26:26.225Z,21.43
2023-03-19T09:28:54.026Z,21.47
2023-03-19T09:31:22.376Z,21.45
2023-03-19T09:33:50.363Z,21.42
2023-03-19T09:36:18.356Z,21.46
2023-03-19T09:38:46.588Z,21.45
2023-03-19T09:41:14.511Z,21.45
2023-03-19T09:43:42.320Z,21.47
2023-03-19T09:46:10.166Z,21.34
2023-03-19T09:48:37.978Z,21.40
2023-03-19T09:51:05.864Z,21.42
2023-03-19T09:53:33.854Z,21.44
2023-03-19T09:56:01.677Z,21.45
2023-03-19T09:58:29.416Z,21.47
2023-03-19T10:00:57.197Z,21.51
2023-03-19T10:03:25.488Z,21.51
2023-03-19T10:05:53.227Z,21.49
2023-03-19T10:08:21.191Z,21.50
2023-03-19T10:10:49.036Z,21.49
2023-03-19T10:13:16.822Z,21.50
2023-03-19T10:15:45.500Z,21.53
2023-03-19T10:18:13.614Z,21.55
2023-03-19T10:20:41.685Z,21.53
2023-03-19T10:23:09.580Z,21.55
2023-03-19T10:25:40.400Z,21.56
2023-03-19T10:28:09.124Z,21.55
2023-03-19T10:30:36.910Z,21.53
2023-03-19T10:33:04.782Z,21.55
2023-03-19T10:35:33.153Z,21.56
2023-03-19T10:38:01.170Z,21.58
2023-03-19T10:40:28.920Z,21.58
2023-03-19T10:42:56.946Z,21.56
2023-03-19T10:45:24.847Z,21.58
2023-03-19T10:47:52.943Z,21.58
2023-03-19T10:50:21.080Z,21.55
2023-03-19T10:52:48.918Z,21.55
2023-03-19T10:55:16.710Z,21.54
2023-03-19T10:57:44.544Z,21.55
2023-03-19T11:00:12.731Z,21.56
2023-03-19T11:02:40.698Z,21.54
2023-03-19T11:05:08.861Z,21.56
2023-03-19T11:07:38.579Z,21.51
2023-03-19T11:10:06.415Z,21.53
2023-03-19T11:12:34.999Z,21.55
2023-03-19T11:15:03.926Z,21.54
2023-03-19T11:17:31.846Z,21.52
2023-03-19T11:19:59.684Z,21.53
2023-03-19T11:22:27.543Z,21.56
2023-03-19T11:24:56.139Z,21.55
2023-03-19T11:27:23.899Z,21.52
2023-03-19T11:29:51.661Z,21.55
2023-03-19T11:32:22.004Z,21.53
2023-03-19T11:34:51.898Z,21.52
2023-03-19T11:37:21.757Z,21.54
2023-03-19T11:39:49.461Z,21.55
2023-03-19T11:42:17.587Z,21.54
2023-03-19T11:44:45.371Z,21.55
2023-03-19T11:47:26.369Z,21.58
2023-03-19T11:49:55.154Z,21.57
2023-03-19T11:52:23.030Z,21.57
2023-03-19T11:54:50.820Z,21.58
2023-03-19T11:57:18.888Z,21.55
2023-03-19T11:59:46.718Z,21.55
2023-03-19T12:02:14.685Z,21.52
2023-03-19T12:04:43.026Z,21.56
2023-03-19T12:07:10.921Z,21.59
2023-03-19T12:09:38.750Z,21.59
2023-03-19T12:12:06.522Z,21.58
2023-03-19T12:14:34.497Z,21.57
2023-03-19T12:17:04.655Z,21.57
2023-03-19T12:19:33.003Z,21.56
2023-03-19T12:22:00.797Z,21.58
2023-03-19T12:24:28.733Z,21.55
2023-03-19T12:26:57.281Z,21.53
2023-03-19T12:29:25.085Z,21.54
2023-03-19T12:31:52.835Z,21.56
2023-03-19T12:34:20.866Z,21.54
2023-03-19T12:36:48.788Z,21.58
2023-03-19T12:39:16.653Z,21.56
2023-03-19T12:41:44.528Z,21.56
2023-03-19T12:44:12.740Z,21.58
2023-03-19T12:46:40.524Z,21.46
2023-03-19T12:49:08.552Z,21.40
2023-03-19T12:51:36.287Z,21.42
2023-03-19T12:54:04.064Z,21.46
2023-03-19T12:56:31.827Z,21.48
2023-03-19T12:58:59.587Z,21.48
2023-03-19T13:01:27.401Z,21.46
2023-03-19T13:03:55.403Z,21.44
2023-03-19T13:06:23.101Z,21.42
2023-03-19T13:08:51.374Z,21.41
2023-03-19T13:11:19.197Z,21.41
2023-03-19T13:13:47.309Z,21.38
2023-03-19T13:16:15.373Z,21.39
2023-03-19T13:18:43.114Z,21.38
2023-03-19T13:21:10.876Z,21.36
2023-03-19T13:23:38.624Z,21.34
2023-03-19T13:26:08.015Z,21.32
2023-03-19T13:28:36.837Z,21.29
2023-03-19T13:31:04.723Z,21.25
2023-03-19T13:33:32.951Z,21.22
2023-03-19T13:36:00.767Z,21.17
2023-03-19T13:38:31.867Z,21.14
2023-03-19T13:40:59.644Z,21.17
2023-03-19T13:43:28.747Z,21.17
2023-03-19T13:45:57.329Z,21.23
2023-03-19T13:48:25.767Z,21.26
2023-03-19T13:50:53.598Z,21.30
2023-03-19T13:53:21.580Z,21.39
2023-03-19T13:55:49.594Z,21.41
2023-03-19T13:58:38.273Z,21.48
2023-03-19T14:01:06.283Z,21.57
2023-03-19T14:03:34.135Z,21.55
2023-03-19T14:06:02.408Z,21.53
2023-03-19T14:08:30.172Z,21.52
2023-03-19T14:10:58.014Z,21.50
2023-03-19T14:13:25.924Z,21.48
2023-03-19T14:15:53.818Z,21.47
2023-03-19T14:18:21.608Z,21.43
2023-03-19T14:20:51.685Z,21.42
2023-03-19T14:23:23.392Z,21.40
2023-03-19T14:25:53.044Z,21.38
2023-03-19T14:28:20.843Z,21.37
2023-03-19T14:30:49.888Z,21.38
2023-03-19T14:33:17.689Z,21.35
2023-03-19T14:35:45.725Z,21.35
2023-03-19T14:38:13.532Z,21.31
2023-03-19T14:40:41.431Z,21.32
2023-03-19T14:43:09.276Z,21.30
2023-03-19T14:45:37.178Z,21.28
2023-03-19T14:48:06.180Z,21.27
2023-03-19T14:50:34.334Z,21.24
2023-03-19T14:53:02.205Z,21.22
2023-03-19T14:55:30.018Z,21.20
2023-03-19T14:58:00.001Z,21.20
2023-03-19T15:00:28.276Z,21.21
2023-03-19T15:02:56.392Z,21.20
2023-03-19T15:05:24.236Z,21.22
2023-03-19T15:07:52.221Z,21.20
2023-03-19T15:10:20.049Z,21.18
2023-03-19T15:12:47.785Z,21.20
2023-03-19T15:15:15.841Z,21.22
2023-03-19T15:17:51.606Z,21.22
2023-03-19T15:20:26.521Z,21.18
2023-03-19T15:22:54.621Z,21.19
2023-03-19T15:25:22.465Z,21.16
2023-03-19T15:27:50.290Z,21.16
2023-03-19T15:30:18.881Z,21.15
2023-03-19T15:32:56.444Z,20.96
2023-03-19T15:35:34.811Z,20.93
2023-03-19T15:38:04.936Z,21.03
2023-03-19T15:40:32.830Z,21.13
2023-03-19T15:43:00.886Z,21.24
2023-03-19T15:45:28.749Z,21.34
2023-03-19T15:47:58.139Z,21.37
2023-03-19T15:50:26.027Z,21.39
2023-03-19T15:52:54.096Z,21.42
2023-03-19T15:55:22.454Z,21.41
2023-03-19T15:57:50.579Z,21.43
2023-03-19T16:00:27.598Z,21.41
2023-03-19T16:02:55.653Z,21.38
2023-03-19T16:05:23.571Z,21.36
2023-03-19T16:07:54.636Z,21.34
2023-03-19T16:10:22.485Z,21.30
2023-03-19T16:12:51.046Z,21.27
2023-03-19T16:15:18.833Z,21.24
2023-03-19T16:17:46.628Z,21.21
2023-03-19T16:20:18.635Z,21.18
2023-03-19T16:22:46.469Z,21.13
2023-03-19T16:25:14.302Z,21.07
2023-03-19T16:27:42.968Z,21.05
2023-03-19T16:30:10.992Z,21.05
2023-03-19T16:32:38.851Z,21.04
2023-03-19T16:35:06.859Z,20.99
2023-03-19T16:37:36.236Z,20.97
2023-03-19T16:40:05.584Z,20.95
2023-03-19T16:42:33.441Z,20.97
2023-03-19T16:45:02.203Z,21.14
2023-03-19T16:47:29.941Z,21.40
2023-03-19T16:49:57.853Z,21.45
2023-03-19T16:52:28.511Z,21.46
2023-03-19T16:54:56.309Z,21.42
2023-03-19T16:57:24.222Z,21.39
2023-03-19T16:59:52.261Z,21.37
2023-03-19T17:02:22.390Z,21.36
2023-03-19T17:04:50.290Z,21.31
2023-03-19T17:07:22.383Z,21.31
2023-03-19T17:09:56.305Z,21.28
2023-03-19T17:12:24.158Z,21.26
2023-03-19T17:14:56.687Z,21.25
2023-03-19T17:17:25.985Z,21.27
2023-03-19T17:19:58.051Z,21.28
2023-03-19T17:22:27.724Z,21.25
2023-03-19T17:24:56.703Z,21.25
2023-03-19T17:27:27.372Z,21.21
2023-03-19T17:29:55.252Z,21.20
2023-03-19T17:32:23.247Z,21.19
2023-03-19T17:34:51.000Z,21.17
2023-03-19T17:37:18.761Z,21.14
2023-03-19T17:39:47.095Z,21.14
2023-03-19T17:42:14.865Z,21.12
2023-03-19T17:50:54.957Z,20.96
2023-03-19T17:53:22.715Z,21.03
2023-03-19T17:55:50.541Z,21.07
2023-03-19T17:58:18.844Z,21.09
2023-03-19T18:00:46.686Z,21.11
2023-03-19T18:03:14.574Z,21.11
2023-03-19T18:05:42.385Z,21.10
2023-03-19T18:08:10.216Z,21.08
2023-03-19T18:10:38.016Z,21.08
2023-03-19T18:13:07.445Z,21.06
2023-03-19T18:15:35.326Z,21.06
2023-03-19T18:18:03.129Z,21.04
2023-03-19T18:20:30.904Z,21.00
2023-03-19T18:22:58.716Z,20.98
2023-03-19T18:25:26.479Z,20.94
2023-03-19T18:27:54.342Z,20.94
2023-03-19T18:30:22.236Z,20.91
2023-03-19T18:32:50.090Z,20.90
2023-03-19T18:35:17.982Z,20.88
2023-03-19T18:37:45.799Z,20.87
2023-03-19T18:40:13.627Z,20.87
2023-03-19T18:42:41.450Z,21.03
2023-03-19T18:45:09.264Z,21.34
2023-03-19T18:47:37.049Z,21.38
2023-03-19T18:50:04.788Z,21.38
2023-03-19T18:52:35.142Z,21.36
2023-03-19T18:55:02.882Z,21.28
2023-03-19T18:57:30.888Z,21.27
2023-03-19T19:00:00.298Z,21.23
2023-03-19T19:02:28.326Z,21.19
2023-03-19T19:04:56.200Z,21.13
2023-03-19T19:07:24.085Z,21.11
2023-03-19T19:09:52.136Z,21.09
2023-03-19T19:12:19.855Z,21.07
2023-03-19T19:14:47.811Z,21.04
2023-03-19T19:17:15.795Z,21.02
2023-03-19T19:19:43.585Z,21.00
2023-03-19T19:22:11.308Z,20.95
2023-03-19T19:24:39.112Z,20.96
2023-03-19T19:27:07.100Z,20.94
2023-03-19T19:29:34.927Z,20.91
2023-03-19T19:32:04.388Z,20.89
2023-03-19T19:34:32.255Z,20.87
2023-03-19T19:37:00.430Z,20.84
2023-03-19T19:39:28.392Z,20.84
2023-03-19T19:41:56.244Z,20.82
2023-03-19T19:44:24.039Z,20.82
2023-03-19T19:46:53.369Z,20.79
2023-03-19T19:49:21.546Z,20.77
2023-03-19T19:51:49.405Z,20.75
2023-03-19T19:54:17.201Z,20.75
2023-03-19T19:56:44.964Z,20.76
2023-03-19T19:59:12.901Z,20.75
2023-03-19T20:01:40.786Z,20.73
2023-03-19T20:04:09.017Z,20.72
2023-03-19T20:06:37.181Z,20.70
2023-03-19T20:09:05.244Z,20.67
2023-03-19T20:11:33.107Z,20.64
2023-03-19T20:14:00.873Z,20.63
2023-03-19T20:16:28.799Z,20.62
2023-03-19T20:18:56.978Z,20.60
2023-03-19T20:21:26.419Z,20.61
2023-03-19T20:23:56.092Z,20.61
2023-03-19T20:26:24.092Z,20.61
2023-03-19T20:28:52.135Z,20.60
2023-03-19T20:31:20.008Z,20.59
2023-03-19T20:33:47.988Z,20.57
2023-03-19T20:36:15.899Z,20.57
2023-03-19T20:38:43.795Z,20.55
2023-03-19T20:41:11.542Z,20.51
2023-03-19T20:43:39.967Z,20.54
2023-03-19T20:46:07.961Z,20.52
2023-03-19T20:48:36.015Z,20.48
2023-03-19T20:51:04.144Z,20.47
2023-03-19T20:53:31.958Z,20.45
2023-03-19T20:56:04.058Z,20.45
2023-03-19T20:58:33.737Z,20.45
2023-03-19T21:01:05.688Z,20.45
2023-03-19T21:03:33.740Z,20.43
2023-03-19T21:06:02.048Z,20.41
2023-03-19T21:08:29.881Z,20.40
2023-03-19T21:10:57.633Z,20.38
2023-03-19T21:13:26.032Z,20.36
2023-03-19T21:15:54.242Z,20.36
2023-03-19T21:18:22.366Z,20.33
2023-03-19T21:20:50.954Z,20.33
2023-03-19T21:23:19.037Z,20.30
2023-03-19T21:25:46.768Z,20.33
2023-03-19T21:28:14.694Z,20.31
2023-03-19T21:30:42.473Z,20.28
2023-03-19T21:33:10.231Z,20.27
2023-03-19T21:35:40.356Z,20.28
2023-03-19T21:38:08.330Z,20.31
2023-03-19T21:40:36.184Z,20.23
2023-03-19T21:43:03.936Z,20.24
2023-03-19T21:45:31.796Z,20.25
2023-03-19T21:47:59.549Z,20.24
2023-03-19T21:50:27.341Z,20.23
2023-03-19T21:53:00.694Z,20.24
2023-03-19T21:55:29.730Z,20.24
2023-03-19T21:57:57.569Z,20.24
2023-03-19T22:00:26.010Z,20.21
2023-03-19T22:02:53.957Z,20.20
2023-03-19T22:05:21.756Z,20.22
2023-03-19T22:07:49.517Z,20.21
2023-03-19T22:10:17.261Z,20.21
2023-03-19T22:12:45.181Z,20.23
2023-03-19T22:15:12.944Z,20.21
2023-03-19T22:17:41.948Z,20.21
2023-03-19T22:20:10.276Z,20.22
2023-03-19T22:22:39.055Z,20.20
2023-03-19T22:25:06.884Z,20.16
2023-03-19T22:27:34.695Z,20.19
2023-03-19T22:30:02.699Z,20.18
2023-03-19T22:32:30.484Z,20.15
2023-03-19T22:34:58.412Z,20.15
2023-03-19T22:37:26.680Z,20.14
2023-03-19T22:39:54.587Z,20.13
2023-03-19T22:42:22.401Z,20.17
2023-03-19T22:44:50.156Z,20.15
2023-03-19T22:47:17.912Z,20.16
2023-03-19T22:49:46.169Z,20.19
2023-03-19T22:52:14.052Z,20.18
2023-03-19T22:54:41.890Z,20.15
2023-03-19T22:57:09.761Z,20.15
2023-03-19T22:59:37.576Z,20.17
2023-03-19T23:02:05.989Z,20.16
2023-03-19T23:04:33.975Z,20.13
2023-03-19T23:07:01.830Z,20.13
2023-03-19T23:09:29.901Z,20.10
2023-03-19T23:11:57.964Z,20.13
2023-03-19T23:14:30.059Z,20.14
2023-03-19T23:17:01.597Z,20.15
2023-03-19T23:19:29.498Z,20.13
2023-03-19T23:21:57.956Z,20.13
2023-03-19T23:24:26.101Z,20.12
2023-03-19T23:26:54.010Z,20.12
2023-03-19T23:29:24.382Z,20.11
2023-03-19T23:31:52.367Z,20.10
2023-03-19T23:34:20.283Z,20.13
2023-03-19T23:36:48.230Z,20.12
2023-03-19T23:39:16.438Z,20.12
2023-03-19T23:41:44.203Z,20.14
2023-03-19T23:44:12.816Z,20.13
2023-03-19T23:46:40.726Z,20.14
2023-03-19T23:49:08.526Z,20.12
2023-03-19T23:51:36.372Z,20.11
2023-03-19T23:54:04.188Z,20.12
2023-03-19T23:56:32.038Z,20.14
2023-03-19T23:58:59.884Z,20.13
